Edna T. Gattle — WDD2528 — position and weather

sailwx.info

Track history (hours):
 
Tides and Currents Weather Stations Pressure Air Temp Water Temp Dewpoint Dewpoint Depression Visibility Wind Speed Wind Dir Waves Ship Positions

Edna T. Gattle

Owner: Terral RiverService, Inc., Lake Providence, LA. More information available from US FCC via Universal Licensing System and Coast Guard Vessel Documentation Center.

Last reported at 2018-Feb-19 16:00 UTC. Time now 2018-Feb-19 16:14 UTC.
Position N 30°11' W 093°18'.

Length 33 m; draft 2.8 m.

Type: Towing. MMSI: 367116420.

Date/timePositionNaut miles runAvg speedWind from/ knotsBaromVisibWave heightAir tempDewpointWater temp
2018-Feb-19 16:00N 30°11' W 093°18'0 0.1
2018-Feb-19 15:30N 30°12' W 093°18'0 0.0
2018-Feb-19 15:00N 30°12' W 093°18'1 2.5
2018-Feb-19 14:26N 30°13' W 093°19'1 1.3
2018-Feb-19 13:54N 30°12' W 093°19'0 0.1
2018-Feb-19 13:30N 30°12' W 093°19'1 1.3
2018-Feb-19 13:00N 30°13' W 093°19'1 1.3
2018-Feb-19 12:30N 30°13' W 093°18'1 2.1
2018-Feb-19 12:00N 30°12' W 093°18'0 0.1
2018-Feb-19 11:30N 30°11' W 093°18'0 0.0
2018-Feb-19 11:00N 30°11' W 093°18'0 0.0
2018-Feb-19 10:30N 30°11' W 093°18'0 0.0
2018-Feb-19 10:00N 30°11' W 093°18'0 0.0
2018-Feb-19 09:29N 30°11' W 093°18'0 0.0
2018-Feb-19 09:00N 30°11' W 093°18'0 0.0
2018-Feb-19 08:30N 30°11' W 093°18'0 0.0
2018-Feb-19 08:00N 30°11' W 093°18'0 0.0
2018-Feb-19 07:30N 30°11' W 093°18'0 0.0
2018-Feb-19 07:00N 30°11' W 093°18'1 1.2
2018-Feb-19 06:30N 30°11' W 093°18'2 5.0
2018-Feb-19 06:00N 30°09' W 093°20'3 5.3
2018-Feb-19 05:30N 30°06' W 093°20'2 3.3
2018-Feb-19 05:00N 30°06' W 093°18'1 1.3
2018-Feb-19 04:30N 30°05' W 093°17'1 1.8
2018-Feb-19 04:00N 30°05' W 093°17'0 0.0
2018-Feb-19 03:30N 30°05' W 093°17'0 0.0
2018-Feb-19 03:00N 30°05' W 093°17'0 0.0
2018-Feb-19 02:30N 30°05' W 093°17'0 0.1
2018-Feb-19 02:00N 30°05' W 093°17'0 0.0
2018-Feb-19 01:30N 30°05' W 093°17'0 0.0
2018-Feb-19 01:00N 30°05' W 093°17'0 0.0
2018-Feb-19 00:30N 30°05' W 093°17'0 0.0
2018-Feb-19 00:00N 30°05' W 093°17'0 0.0
2018-Feb-18 23:30N 30°05' W 093°17'0 0.0
2018-Feb-18 23:00N 30°05' W 093°17'0 0.0
2018-Feb-18 22:30N 30°05' W 093°17'0 0.0
2018-Feb-18 22:00N 30°05' W 093°17'0 0.1
2018-Feb-18 21:30N 30°05' W 093°17'0 0.0
2018-Feb-18 21:00N 30°05' W 093°17'0 0.0
2018-Feb-18 20:30N 30°05' W 093°17'0 0.0
2018-Feb-18 20:00N 30°05' W 093°17'0 0.0
2018-Feb-18 19:30N 30°05' W 093°17'0 0.1
2018-Feb-18 19:00N 30°05' W 093°17'0 0.2
2018-Feb-18 18:30N 30°04' W 093°16'0 0.5
2018-Feb-18 18:00N 30°04' W 093°16'1 2.3
2018-Feb-18 17:30N 30°03' W 093°16'1 2.9
2018-Feb-18 17:00N 30°02' W 093°15'2 4.6
2018-Feb-18 16:30N 29°60' W 093°13'3 5.2
2018-Feb-18 16:00N 29°58' W 093°11'3 5.2
2018-Feb-18 15:30N 29°56' W 093°10'3 5.3
2018-Feb-18 15:00N 29°56' W 093°06'2 4.4
2018-Feb-18 14:30N 29°56' W 093°04'11 4.4
2018-Feb-18 12:02N 29°57' W 092°51'0 5.3
2018-Feb-18 12:00N 29°57' W 092°51'26 2.6
2018-Feb-18 02:04N 29°51' W 092°22'0 4.0
2018-Feb-18 02:00N 29°51' W 092°21'2 3.1
2018-Feb-18 01:30N 29°50' W 092°20'2 4.0
2018-Feb-18 01:00N 29°50' W 092°18'2 4.1
2018-Feb-18 00:30N 29°48' W 092°16'3 5.0
2018-Feb-18 00:00N 29°47' W 092°13'2 3.4
2018-Feb-17 23:30N 29°47' W 092°11'1 2.5
2018-Feb-17 23:00N 29°47' W 092°10'2 4.7
2018-Feb-17 22:30N 29°47' W 092°07'2 4.5
2018-Feb-17 22:00N 29°48' W 092°05'2 4.4
2018-Feb-17 21:30N 29°49' W 092°03'2 4.6
2018-Feb-17 21:00N 29°50' W 092°00'2 4.4
2018-Feb-17 20:30N 29°50' W 091°58'  
Track history (hours):
 
Tides and Currents Weather Stations Pressure Air Temp Water Temp Dewpoint Dewpoint Depression Visibility Wind Speed Wind Dir Waves Ship Positions

Edna T. Gattle

Owner: Terral RiverService, Inc., Lake Providence, LA. More information available from US FCC via Universal Licensing System and Coast Guard Vessel Documentation Center.

Last reported at 2018-Feb-19 16:00 UTC. Time now 2018-Feb-19 16:14 UTC.
Position N 30°11' W 093°18'.

Length 33 m; draft 2.8 m.

Type: Towing. MMSI: 367116420.

Date/timePositionNaut miles runAvg speedWind from/ knotsBaromVisibWave heightAir tempDewpointWater temp
2018-Feb-19 16:00N 30°11' W 093°18'0 0.1
2018-Feb-19 15:30N 30°12' W 093°18'0 0.0
2018-Feb-19 15:00N 30°12' W 093°18'1 2.5
2018-Feb-19 14:26N 30°13' W 093°19'1 1.3
2018-Feb-19 13:54N 30°12' W 093°19'0 0.1
2018-Feb-19 13:30N 30°12' W 093°19'1 1.3
2018-Feb-19 13:00N 30°13' W 093°19'1 1.3
2018-Feb-19 12:30N 30°13' W 093°18'1 2.1
2018-Feb-19 12:00N 30°12' W 093°18'0 0.1
2018-Feb-19 11:30N 30°11' W 093°18'0 0.0
2018-Feb-19 11:00N 30°11' W 093°18'0 0.0
2018-Feb-19 10:30N 30°11' W 093°18'0 0.0
2018-Feb-19 10:00N 30°11' W 093°18'0 0.0
2018-Feb-19 09:29N 30°11' W 093°18'0 0.0
2018-Feb-19 09:00N 30°11' W 093°18'0 0.0
2018-Feb-19 08:30N 30°11' W 093°18'0 0.0
2018-Feb-19 08:00N 30°11' W 093°18'0 0.0
2018-Feb-19 07:30N 30°11' W 093°18'0 0.0
2018-Feb-19 07:00N 30°11' W 093°18'1 1.2
2018-Feb-19 06:30N 30°11' W 093°18'2 5.0
2018-Feb-19 06:00N 30°09' W 093°20'3 5.3
2018-Feb-19 05:30N 30°06' W 093°20'2 3.3
2018-Feb-19 05:00N 30°06' W 093°18'1 1.3
2018-Feb-19 04:30N 30°05' W 093°17'1 1.8
2018-Feb-19 04:00N 30°05' W 093°17'0 0.0
2018-Feb-19 03:30N 30°05' W 093°17'0 0.0
2018-Feb-19 03:00N 30°05' W 093°17'0 0.0
2018-Feb-19 02:30N 30°05' W 093°17'0 0.1
2018-Feb-19 02:00N 30°05' W 093°17'0 0.0
2018-Feb-19 01:30N 30°05' W 093°17'0 0.0
2018-Feb-19 01:00N 30°05' W 093°17'0 0.0
2018-Feb-19 00:30N 30°05' W 093°17'0 0.0
2018-Feb-19 00:00N 30°05' W 093°17'0 0.0
2018-Feb-18 23:30N 30°05' W 093°17'0 0.0
2018-Feb-18 23:00N 30°05' W 093°17'0 0.0
2018-Feb-18 22:30N 30°05' W 093°17'0 0.0
2018-Feb-18 22:00N 30°05' W 093°17'0 0.1
2018-Feb-18 21:30N 30°05' W 093°17'0 0.0
2018-Feb-18 21:00N 30°05' W 093°17'0 0.0
2018-Feb-18 20:30N 30°05' W 093°17'0 0.0
2018-Feb-18 20:00N 30°05' W 093°17'0 0.0
2018-Feb-18 19:30N 30°05' W 093°17'0 0.1
2018-Feb-18 19:00N 30°05' W 093°17'0 0.2
2018-Feb-18 18:30N 30°04' W 093°16'0 0.5
2018-Feb-18 18:00N 30°04' W 093°16'1 2.3
2018-Feb-18 17:30N 30°03' W 093°16'1 2.9
2018-Feb-18 17:00N 30°02' W 093°15'2 4.6
2018-Feb-18 16:30N 29°60' W 093°13'3 5.2
2018-Feb-18 16:00N 29°58' W 093°11'3 5.2
2018-Feb-18 15:30N 29°56' W 093°10'3 5.3
2018-Feb-18 15:00N 29°56' W 093°06'2 4.4
2018-Feb-18 14:30N 29°56' W 093°04'11 4.4
2018-Feb-18 12:02N 29°57' W 092°51'0 5.3
2018-Feb-18 12:00N 29°57' W 092°51'26 2.6
2018-Feb-18 02:04N 29°51' W 092°22'0 4.0
2018-Feb-18 02:00N 29°51' W 092°21'2 3.1
2018-Feb-18 01:30N 29°50' W 092°20'2 4.0
2018-Feb-18 01:00N 29°50' W 092°18'2 4.1
2018-Feb-18 00:30N 29°48' W 092°16'3 5.0
2018-Feb-18 00:00N 29°47' W 092°13'2 3.4
2018-Feb-17 23:30N 29°47' W 092°11'1 2.5
2018-Feb-17 23:00N 29°47' W 092°10'2 4.7
2018-Feb-17 22:30N 29°47' W 092°07'2 4.5
2018-Feb-17 22:00N 29°48' W 092°05'2 4.4
2018-Feb-17 21:30N 29°49' W 092°03'2 4.6
2018-Feb-17 21:00N 29°50' W 092°00'2 4.4
2018-Feb-17 20:30N 29°50' W 091°58'  

Dump ship's entire track history